sensor_id;sensor_type;location;lat;lon;timestamp;pressure;altitude;pressure_sealevel;temperature;humidity
62980;BME280;49075;53.988;27.678;2023-04-19T12:56:28;989.8;;;15.5;24
62980;BME280;49075;53.988;27.678;2023-04-19T13:06:10;989.8;;;15.7;24.7
62980;BME280;49075;53.988;27.678;2023-04-19T13:11:10;989.8;;;15.7;24.8
62980;BME280;49075;53.988;27.678;2023-04-19T13:16:30;989.8;;;15.8;25.1
62980;BME280;49075;53.988;27.678;2023-04-19T13:21:30;989.9;;;15.8;25.8
62980;BME280;49075;53.988;27.678;2023-04-19T13:26:20;989.9;;;15.6;26
62980;BME280;49075;53.988;27.678;2023-04-19T13:31:10;989.9;;;15.5;26
62980;BME280;49075;53.988;27.678;2023-04-19T13:36:18;989.9;;;15.6;25.9
62980;BME280;49075;53.988;27.678;2023-04-19T13:41:28;989.9;;;15.7;25.7
62980;BME280;49075;53.988;27.678;2023-04-19T13:46:10;989.9;;;16.1;25.3
62980;BME280;49075;53.988;27.678;2023-04-19T13:51:22;989.9;;;16.1;25.3
62980;BME280;49075;53.988;27.678;2023-04-19T13:56:32;990;;;15.7;25.7
62980;BME280;49075;53.988;27.678;2023-04-19T14:01:26;989.9;;;15.6;26.5
62980;BME280;49075;53.988;27.678;2023-04-19T14:06:11;989.9;;;15.5;26.9
62980;BME280;49075;53.988;27.678;2023-04-19T14:11:32;990;;;15.4;27.4
62980;BME280;49075;53.988;27.678;2023-04-19T14:16:20;990.1;;;15.3;27.6
62980;BME280;49075;53.988;27.678;2023-04-19T14:21:18;990.1;;;15.2;28.1
62980;BME280;49075;53.988;27.678;2023-04-19T14:26:16;990.1;;;15;28.1
62980;BME280;49075;53.988;27.678;2023-04-19T14:31:22;990.1;;;15;28.6
62980;BME280;49075;53.988;27.678;2023-04-19T14:36:16;990.2;;;15;29
62980;BME280;49075;53.988;27.678;2023-04-19T14:41:10;990.2;;;15;29
62980;BME280;49075;53.988;27.678;2023-04-19T14:46:10;990.1;;;15;29.3
62980;BME280;49075;53.988;27.678;2023-04-19T14:51:28;990.2;;;14.9;29.3
62980;BME280;49075;53.988;27.678;2023-04-19T14:56:10;990.2;;;14.8;29.1
62980;BME280;49075;53.988;27.678;2023-04-19T15:01:16;990.2;;;14.9;29
62980;BME280;49075;53.988;27.678;2023-04-19T15:06:32;990.2;;;14.8;28.9
62980;BME280;49075;53.988;27.678;2023-04-19T15:11:10;990.2;;;14.8;29.1
62980;BME280;49075;53.988;27.678;2023-04-19T15:16:16;990.3;;;14.6;29.2
62980;BME280;49075;53.988;27.678;2023-04-19T15:21:10;990.3;;;14.7;29.1
62980;BME280;49075;53.988;27.678;2023-04-19T15:26:18;990.3;;;14.4;29.3
62980;BME280;49075;53.988;27.678;2023-04-19T15:31:20;990.3;;;14.5;29.4
62980;BME280;49075;53.988;27.678;2023-04-19T15:36:10;990.3;;;14.5;29.4
62980;BME280;49075;53.988;27.678;2023-04-19T15:41:22;990.2;;;14.6;29.4
62980;BME280;49075;53.988;27.678;2023-04-19T15:46:10;990.3;;;14.6;29.5
62980;BME280;49075;53.988;27.678;2023-04-19T15:51:18;990.2;;;14.5;29.4
62980;BME280;49075;53.988;27.678;2023-04-19T15:56:20;990.3;;;14.3;28.9
62980;BME280;49075;53.988;27.678;2023-04-19T16:01:10;990.3;;;14.4;29.1
62980;BME280;49075;53.988;27.678;2023-04-19T16:06:10;990.3;;;14.3;29
62980;BME280;49075;53.988;27.678;2023-04-19T16:11:22;990.3;;;14.3;29.1
62980;BME280;49075;53.988;27.678;2023-04-19T16:16:28;990.3;;;14.1;29
62980;BME280;49075;53.988;27.678;2023-04-19T16:21:20;990.3;;;14.2;29
62980;BME280;49075;53.988;27.678;2023-04-19T16:26:08;990.4;;;14.2;29.3
62980;BME280;49075;53.988;27.678;2023-04-19T16:31:18;990.4;;;14.2;29.6
62980;BME280;49075;53.988;27.678;2023-04-19T16:36:22;990.4;;;14;29.8
62980;BME280;49075;53.988;27.678;2023-04-19T16:41:10;990.5;;;14;30
62980;BME280;49075;53.988;27.678;2023-04-19T16:46:10;990.5;;;13.9;30.2
62980;BME280;49075;53.988;27.678;2023-04-19T16:51:10;990.5;;;13.8;30.4
62980;BME280;49075;53.988;27.678;2023-04-19T16:56:16;990.5;;;13.8;30.5
62980;BME280;49075;53.988;27.678;2023-04-19T17:01:10;990.6;;;13.8;30.7
62980;BME280;49075;53.988;27.678;2023-04-19T17:06:28;990.6;;;13.7;31
62980;BME280;49075;53.988;27.678;2023-04-19T17:11:18;990.7;;;13.6;31.1
62980;BME280;49075;53.988;27.678;2023-04-19T17:16:10;990.8;;;13.5;31.4
62980;BME280;49075;53.988;27.678;2023-04-19T17:21:42;990.8;;;13.4;31.6
62980;BME280;49075;53.988;27.678;2023-04-19T17:26:20;990.9;;;13.2;31.9
62980;BME280;49075;53.988;27.678;2023-04-19T17:31:18;990.9;;;13.1;31.9
62980;BME280;49075;53.988;27.678;2023-04-19T17:36:10;991;;;13;31.9
62980;BME280;49075;53.988;27.678;2023-04-19T17:41:22;991;;;13;32
62980;BME280;49075;53.988;27.678;2023-04-19T17:46:20;991.1;;;12.9;32.1
62980;BME280;49075;53.988;27.678;2023-04-19T17:51:20;991.1;;;12.8;32.2
62980;BME280;49075;53.988;27.678;2023-04-19T17:56:16;991.1;;;12.8;32.4
62980;BME280;49075;53.988;27.678;2023-04-19T18:01:16;991.1;;;12.7;32.6
62980;BME280;49075;53.988;27.678;2023-04-19T18:06:22;991.2;;;12.7;32.8
62980;BME280;49075;53.988;27.678;2023-04-19T18:11:20;991.2;;;12.7;32.9
62980;BME280;49075;53.988;27.678;2023-04-19T18:16:10;991.2;;;12.6;33.3
62980;BME280;49075;53.988;27.678;2023-04-19T18:21:10;991.2;;;12.5;33.3
62980;BME280;49075;53.988;27.678;2023-04-19T18:26:10;991.3;;;12.4;33.5
62980;BME280;49075;53.988;27.678;2023-04-19T18:31:42;991.3;;;12.3;33.6
62980;BME280;49075;53.988;27.678;2023-04-19T18:36:10;991.4;;;12.2;33.8
62980;BME280;49075;53.988;27.678;2023-04-19T18:41:32;991.4;;;12.2;33.8
62980;BME280;49075;53.988;27.678;2023-04-19T18:46:10;991.4;;;12.1;33.8
62980;BME280;49075;53.988;27.678;2023-04-19T18:51:10;991.3;;;12.1;33.7
62980;BME280;49075;53.988;27.678;2023-04-19T18:56:20;991.4;;;12;33.8
62980;BME280;49075;53.988;27.678;2023-04-19T19:01:26;991.4;;;11.9;33.9
62980;BME280;49075;53.988;27.678;2023-04-19T19:06:11;991.4;;;12;33.9
62980;BME280;49075;53.988;27.678;2023-04-19T19:11:16;991.4;;;11.9;34.1
62980;BME280;49075;53.988;27.678;2023-04-19T19:16:18;991.4;;;11.8;34.2
62980;BME280;49075;53.988;27.678;2023-04-19T19:21:22;991.5;;;11.8;34.3
62980;BME280;49075;53.988;27.678;2023-04-19T19:26:20;991.4;;;11.7;34.4
62980;BME280;49075;53.988;27.678;2023-04-19T19:31:24;991.5;;;11.6;34.5
62980;BME280;49075;53.988;27.678;2023-04-19T19:36:10;991.5;;;11.5;34.7
62980;BME280;49075;53.988;27.678;2023-04-19T19:41:20;991.5;;;11.4;34.9
62980;BME280;49075;53.988;27.678;2023-04-19T19:46:10;991.5;;;11.3;34.9
62980;BME280;49075;53.988;27.678;2023-04-19T19:51:28;991.5;;;11.1;35
62980;BME280;49075;53.988;27.678;2023-04-19T19:56:10;991.5;;;11;35
62980;BME280;49075;53.988;27.678;2023-04-19T20:01:30;991.5;;;10.9;35.2
62980;BME280;49075;53.988;27.678;2023-04-19T20:06:18;991.5;;;10.9;35.2
62980;BME280;49075;53.988;27.678;2023-04-19T20:11:10;991.5;;;10.8;35.2
62980;BME280;49075;53.988;27.678;2023-04-19T20:16:20;991.6;;;10.7;35.4
62980;BME280;49075;53.988;27.678;2023-04-19T20:21:10;991.6;;;10.6;35.7
62980;BME280;49075;53.988;27.678;2023-04-19T20:26:10;991.6;;;10.6;35.8
62980;BME280;49075;53.988;27.678;2023-04-19T20:31:10;991.7;;;10.5;36.1
62980;BME280;49075;53.988;27.678;2023-04-19T20:36:10;991.7;;;10.4;36.4
62980;BME280;49075;53.988;27.678;2023-04-19T20:41:20;991.7;;;10.3;36.6
62980;BME280;49075;53.988;27.678;2023-04-19T20:46:20;991.7;;;10.2;37.1
62980;BME280;49075;53.988;27.678;2023-04-19T20:51:10;991.7;;;10.2;37.3
62980;BME280;49075;53.988;27.678;2023-04-19T20:56:40;991.7;;;10.1;37.8
62980;BME280;49075;53.988;27.678;2023-04-19T21:01:34;991.7;;;10;38
62980;BME280;49075;53.988;27.678;2023-04-19T21:06:26;991.7;;;9.9;38.5
62980;BME280;49075;53.988;27.678;2023-04-19T21:11:10;991.7;;;9.8;38.9
62980;BME280;49075;53.988;27.678;2023-04-19T21:16:10;991.8;;;9.7;39.3
62980;BME280;49075;53.988;27.678;2023-04-19T21:21:22;991.8;;;9.6;39.5
62980;BME280;49075;53.988;27.678;2023-04-19T21:26:22;991.9;;;9.6;40
62980;BME280;49075;53.988;27.678;2023-04-19T21:31:18;991.8;;;9.5;40.1
62980;BME280;49075;53.988;27.678;2023-04-19T21:36:30;991.9;;;9.4;40.6
62980;BME280;49075;53.988;27.678;2023-04-19T21:41:10;991.9;;;9.4;40.6
62980;BME280;49075;53.988;27.678;2023-04-19T21:46:10;991.9;;;9.3;41.1
62980;BME280;49075;53.988;27.678;2023-04-19T21:51:22;991.9;;;9.3;41
62980;BME280;49075;53.988;27.678;2023-04-19T21:56:20;991.9;;;9.2;41.4
62980;BME280;49075;53.988;27.678;2023-04-19T22:01:30;991.9;;;9.2;41.4
62980;BME280;49075;53.988;27.678;2023-04-19T22:06:42;991.9;;;9.1;41.9
62980;BME280;49075;53.988;27.678;2023-04-19T22:11:10;991.9;;;9.1;41.7
62980;BME280;49075;53.988;27.678;2023-04-19T22:16:34;991.9;;;9;42.4
62980;BME280;49075;53.988;27.678;2023-04-19T22:21:20;991.9;;;9;42.1
62980;BME280;49075;53.988;27.678;2023-04-19T22:26:22;991.9;;;8.9;42.5
62980;BME280;49075;53.988;27.678;2023-04-19T22:31:10;992;;;8.9;42.4
62980;BME280;49075;53.988;27.678;2023-04-19T22:36:30;992;;;8.8;43
62980;BME280;49075;53.988;27.678;2023-04-19T22:41:22;992;;;8.7;43.1
62980;BME280;49075;53.988;27.678;2023-04-19T22:46:10;992;;;8.6;43.3
62980;BME280;49075;53.988;27.678;2023-04-19T22:51:22;992;;;8.6;43.6
62980;BME280;49075;53.988;27.678;2023-04-19T23:21:10;992;;;8.3;44.4
62980;BME280;49075;53.988;27.678;2023-04-19T23:26:32;992;;;8.3;44.7
62980;BME280;49075;53.988;27.678;2023-04-19T23:31:22;992;;;8.3;44.5
62980;BME280;49075;53.988;27.678;2023-04-19T23:36:28;992;;;8.2;45.1
62980;BME280;49075;53.988;27.678;2023-04-19T23:41:32;992;;;8.1;45.2
62980;BME280;49075;53.988;27.678;2023-04-19T23:46:16;992;;;8;46
62980;BME280;49075;53.988;27.678;2023-04-19T23:51:22;992;;;8;45.7
62980;BME280;49075;53.988;27.678;2023-04-19T23:56:22;992;;;7.9;46.3
